Terminal Aerodrome Forecast
Issued by NWS

Home | Current Version | Previous Version | Text Only | Print | Product List | Glossary On
Versions: 1 2 3 4 5 6 7 8 9 10 11 12 13 14
264
FTUS46 KSEW 290523
TAFOLM
TAF
KOLM 290523Z 2906/3006 23007KT P6SM BKN070
     FM290900 20005KT P6SM SCT008 BKN015 OVC070
     FM291400 21006KT P6SM -SHRA OVC015
     FM292000 29006KT P6SM VCSH SCT020 BKN035
     FM300000 27007KT P6SM SCT030 BKN050
     FM300400 VRB04KT P6SM BKN050=

USA.gov is the U.S. government's official web portal to all federal, state and local government web resources and services.